Pacific Princess — ZCDS3 — position and weather

sailwx.info

Track history (hours):
 
Tides and Currents Weather Stations Pressure Air Temp Water Temp Dewpoint Dewpoint Depression Visibility Wind Speed Wind Dir Waves Ship Positions

Pacific Princess (Bermuda)

Last reported at 2018-Jan-20 00:23 UTC. Time now 2018-Jan-20 11:12 UTC.
Position N 24°17' W 110°22'.

Length 180.5 m; beam 25.6 m; draft 6 m.

Type: Passenger vessel. MMSI: 310504000.

Date/timePositionNaut miles runAvg speedWind from/ knotsBaromVisibWave heightAir tempDewpointWater temp
2018-Jan-20 00:23N 24°17' W 110°22'3 7.3
2018-Jan-20 00:01N 24°16' W 110°20'0 0.6
2018-Jan-19 23:23N 24°16' W 110°20'0 0.0
2018-Jan-19 22:59N 24°16' W 110°20'0 0.0
2018-Jan-19 22:26N 24°16' W 110°20'0 0.0
2018-Jan-19 21:59N 24°16' W 110°20'0 0.0
2018-Jan-19 21:29N 24°16' W 110°20'0 0.0
2018-Jan-19 20:54N 24°16' W 110°20'0 0.0
2018-Jan-19 20:26N 24°16' W 110°20'0 0.0
2018-Jan-19 20:00N 24°16' W 110°20'0 0.0
2018-Jan-19 19:23N 24°16' W 110°20'0 0.0
2018-Jan-19 18:59N 24°16' W 110°20'0 0.0
2018-Jan-19 18:26N 24°16' W 110°20'0 0.0
2018-Jan-19 17:58N 24°16' W 110°20'0 0.0
2018-Jan-19 17:29N 24°16' W 110°20'0 0.0
2018-Jan-19 16:59N 24°16' W 110°20'0 0.0
2018-Jan-19 16:29N 24°16' W 110°20'0 0.0
2018-Jan-19 15:53N 24°16' W 110°20'0 0.0
2018-Jan-19 15:29N 24°16' W 110°20'0 0.0
2018-Jan-19 14:56N 24°16' W 110°20'0 0.0
2018-Jan-19 14:29N 24°16' W 110°20'0 0.0
2018-Jan-19 13:59N 24°16' W 110°20'0 0.5
2018-Jan-19 13:30N 24°16' W 110°20'4 8.1
2018-Jan-19 12:59N 24°15' W 110°24'612.2
2018-Jan-19 12:29N 24°20' W 110°28'4710.5
2018-Jan-19 08:00N 24°18' W 109°36'11516.4 300 / 221017.710.8 21.517.524.0
2018-Jan-19 01:00N 22°48' W 108°18'7017.5 310 / 121015.110.8 21.520.724.0
2018-Jan-18 21:00N 21°54' W 107°30'21416.5 300 / 91017.210.8 24.016.726.0
2018-Jan-18 08:00N 19°12' W 105°00'19918.1 1017.610.8 26.021.526.0
2018-Jan-17 21:00N 17°30' W 102°00'21317.7 240 / 91015.010.8 27.023.226.0
2018-Jan-17 09:00N 16°06' W 098°36'41811.6 050 / 61017.410.8 26.023.126.0
2018-Jan-15 21:00N 13°48' W 091°48'23718.2 270 / 101013.3 28.217.728.0
2018-Jan-15 08:00N 12°12' W 088°06'160 6.7 010 / 321013.310.8 26.016.328.0
2018-Jan-14 08:00N 10°24' W 086°06'372 9.1 020 / 421013.110.8
2018-Jan-12 14:59N 09°15' W 079°55'0 0.1
2018-Jan-12 14:30N 09°15' W 079°55'1 2.4
2018-Jan-12 13:58N 09°16' W 079°55'0 0.5
2018-Jan-12 13:27N 09°16' W 079°55'0 0.3
2018-Jan-12 12:56N 09°17' W 079°55'1 1.8
2018-Jan-12 12:22N 09°18' W 079°55'2 6.1
2018-Jan-12 12:00N 09°20' W 079°55'3 5.4
2018-Jan-12 11:30N 09°22' W 079°55'3 6.5
2018-Jan-12 11:00N 09°26' W 079°55'611.3
2018-Jan-12 10:30N 09°31' W 079°54'28210.2
2018-Jan-11 07:00N 11°06' W 075°24'30 9.6 060 / 131012.810.8
2018-Jan-11 03:56N 11°20' W 074°57'4 9.3
2018-Jan-11 03:29N 11°21' W 074°53'4 9.1
2018-Jan-11 03:00N 11°21' W 074°49'5 9.3
2018-Jan-11 02:30N 11°20' W 074°44'5 9.3
2018-Jan-11 02:00N 11°19' W 074°39'  
Track history (hours):
 
Tides and Currents Weather Stations Pressure Air Temp Water Temp Dewpoint Dewpoint Depression Visibility Wind Speed Wind Dir Waves Ship Positions

Pacific Princess (Bermuda)

Last reported at 2018-Jan-20 00:23 UTC. Time now 2018-Jan-20 11:12 UTC.
Position N 24°17' W 110°22'.

Length 180.5 m; beam 25.6 m; draft 6 m.

Type: Passenger vessel. MMSI: 310504000.

Date/timePositionNaut miles runAvg speedWind from/ knotsBaromVisibWave heightAir tempDewpointWater temp
2018-Jan-20 00:23N 24°17' W 110°22'3 7.3
2018-Jan-20 00:01N 24°16' W 110°20'0 0.6
2018-Jan-19 23:23N 24°16' W 110°20'0 0.0
2018-Jan-19 22:59N 24°16' W 110°20'0 0.0
2018-Jan-19 22:26N 24°16' W 110°20'0 0.0
2018-Jan-19 21:59N 24°16' W 110°20'0 0.0
2018-Jan-19 21:29N 24°16' W 110°20'0 0.0
2018-Jan-19 20:54N 24°16' W 110°20'0 0.0
2018-Jan-19 20:26N 24°16' W 110°20'0 0.0
2018-Jan-19 20:00N 24°16' W 110°20'0 0.0
2018-Jan-19 19:23N 24°16' W 110°20'0 0.0
2018-Jan-19 18:59N 24°16' W 110°20'0 0.0
2018-Jan-19 18:26N 24°16' W 110°20'0 0.0
2018-Jan-19 17:58N 24°16' W 110°20'0 0.0
2018-Jan-19 17:29N 24°16' W 110°20'0 0.0
2018-Jan-19 16:59N 24°16' W 110°20'0 0.0
2018-Jan-19 16:29N 24°16' W 110°20'0 0.0
2018-Jan-19 15:53N 24°16' W 110°20'0 0.0
2018-Jan-19 15:29N 24°16' W 110°20'0 0.0
2018-Jan-19 14:56N 24°16' W 110°20'0 0.0
2018-Jan-19 14:29N 24°16' W 110°20'0 0.0
2018-Jan-19 13:59N 24°16' W 110°20'0 0.5
2018-Jan-19 13:30N 24°16' W 110°20'4 8.1
2018-Jan-19 12:59N 24°15' W 110°24'612.2
2018-Jan-19 12:29N 24°20' W 110°28'4710.5
2018-Jan-19 08:00N 24°18' W 109°36'11516.4 300 / 221017.710.8 21.517.524.0
2018-Jan-19 01:00N 22°48' W 108°18'7017.5 310 / 121015.110.8 21.520.724.0
2018-Jan-18 21:00N 21°54' W 107°30'21416.5 300 / 91017.210.8 24.016.726.0
2018-Jan-18 08:00N 19°12' W 105°00'19918.1 1017.610.8 26.021.526.0
2018-Jan-17 21:00N 17°30' W 102°00'21317.7 240 / 91015.010.8 27.023.226.0
2018-Jan-17 09:00N 16°06' W 098°36'41811.6 050 / 61017.410.8 26.023.126.0
2018-Jan-15 21:00N 13°48' W 091°48'23718.2 270 / 101013.3 28.217.728.0
2018-Jan-15 08:00N 12°12' W 088°06'160 6.7 010 / 321013.310.8 26.016.328.0
2018-Jan-14 08:00N 10°24' W 086°06'372 9.1 020 / 421013.110.8
2018-Jan-12 14:59N 09°15' W 079°55'0 0.1
2018-Jan-12 14:30N 09°15' W 079°55'1 2.4
2018-Jan-12 13:58N 09°16' W 079°55'0 0.5
2018-Jan-12 13:27N 09°16' W 079°55'0 0.3
2018-Jan-12 12:56N 09°17' W 079°55'1 1.8
2018-Jan-12 12:22N 09°18' W 079°55'2 6.1
2018-Jan-12 12:00N 09°20' W 079°55'3 5.4
2018-Jan-12 11:30N 09°22' W 079°55'3 6.5
2018-Jan-12 11:00N 09°26' W 079°55'611.3
2018-Jan-12 10:30N 09°31' W 079°54'28210.2
2018-Jan-11 07:00N 11°06' W 075°24'30 9.6 060 / 131012.810.8
2018-Jan-11 03:56N 11°20' W 074°57'4 9.3
2018-Jan-11 03:29N 11°21' W 074°53'4 9.1
2018-Jan-11 03:00N 11°21' W 074°49'5 9.3
2018-Jan-11 02:30N 11°20' W 074°44'5 9.3
2018-Jan-11 02:00N 11°19' W 074°39'  

Dump ship's entire track history